createdAt,value
2019-03-30T00:02:07.099Z,7.23
2019-03-30T00:04:36.903Z,8.30
2019-03-30T00:07:06.761Z,6.47
2019-03-30T00:09:37.093Z,8.03
2019-03-30T00:12:07.207Z,6.37
2019-03-30T00:14:37.013Z,7.13
2019-03-30T00:17:06.960Z,9.33
2019-03-30T00:19:36.863Z,6.10
2019-03-30T00:22:06.706Z,6.70
2019-03-30T00:24:39.128Z,6.77
2019-03-30T00:27:08.942Z,10.47
2019-03-30T00:29:41.697Z,5.33
2019-03-30T00:32:12.014Z,7.80
2019-03-30T00:34:45.165Z,7.37
2019-03-30T00:37:16.073Z,7.27
2019-03-30T00:39:45.893Z,6.63
2019-03-30T00:42:15.702Z,8.30
2019-03-30T00:44:45.873Z,10.63
2019-03-30T00:47:15.627Z,9.13
2019-03-30T00:49:50.112Z,7.60
2019-03-30T00:52:20.210Z,7.40
2019-03-30T00:54:50.049Z,7.53
2019-03-30T00:57:19.779Z,7.83
2019-03-30T00:59:49.698Z,7.97
2019-03-30T01:02:22.351Z,7.97
2019-03-30T01:04:52.160Z,6.93
2019-03-30T01:07:22.152Z,7.33
2019-03-30T01:09:51.967Z,7.03
2019-03-30T01:12:24.148Z,9.37
2019-03-30T01:14:54.222Z,7.07
2019-03-30T01:17:24.167Z,6.87
2019-03-30T01:20:02.797Z,8.83
2019-03-30T01:22:25.643Z,8.53
2019-03-30T01:24:55.584Z,9.57
2019-03-30T01:27:25.447Z,9.63
2019-03-30T01:29:55.333Z,8.37
2019-03-30T01:32:25.160Z,8.27
2019-03-30T01:34:55.332Z,5.87
2019-03-30T01:37:26.337Z,8.00
2019-03-30T01:39:56.146Z,8.80
2019-03-30T01:42:29.191Z,8.20
2019-03-30T01:44:59.054Z,8.63
2019-03-30T01:47:28.923Z,8.37
2019-03-30T01:49:58.750Z,8.70
2019-03-30T01:52:28.519Z,7.17
2019-03-30T01:54:58.627Z,7.30
2019-03-30T01:57:30.989Z,11.77
2019-03-30T02:00:02.051Z,7.93
2019-03-30T02:02:33.670Z,8.90
2019-03-30T02:05:03.820Z,7.93
2019-03-30T02:07:33.912Z,9.23
2019-03-30T02:10:03.671Z,12.13
2019-03-30T02:12:33.509Z,8.73
2019-03-30T02:15:03.844Z,7.87
2019-03-30T02:17:33.629Z,9.47
2019-03-30T02:20:04.438Z,7.87
2019-03-30T02:22:37.082Z,7.87
2019-03-30T02:25:07.736Z,7.43
2019-03-30T02:27:40.753Z,9.03
2019-03-30T02:30:11.053Z,6.70
2019-03-30T02:32:41.065Z,7.47
2019-03-30T02:35:10.836Z,7.53
2019-03-30T02:37:40.496Z,8.20
2019-03-30T02:40:10.317Z,7.37
2019-03-30T02:42:40.075Z,8.40
2019-03-30T02:45:09.778Z,7.00
2019-03-30T02:47:39.533Z,8.47
2019-03-30T02:50:09.526Z,8.20
2019-03-30T02:52:39.381Z,7.07
2019-03-30T02:55:12.568Z,8.50
2019-03-30T02:57:40.966Z,8.23
2019-03-30T03:00:12.248Z,8.73
2019-03-30T03:02:50.239Z,13.20
2019-03-30T03:05:22.493Z,8.43
2019-03-30T03:07:52.859Z,9.70
2019-03-30T03:10:22.726Z,8.97
2019-03-30T03:12:52.531Z,10.13
2019-03-30T03:15:22.869Z,8.27
2019-03-30T03:17:53.789Z,11.63
2019-03-30T03:20:23.756Z,8.47
2019-03-30T03:22:53.761Z,8.00
2019-03-30T03:25:23.622Z,8.13
2019-03-30T03:27:54.202Z,10.30
2019-03-30T03:30:26.194Z,7.90
2019-03-30T03:32:56.515Z,10.27
2019-03-30T03:35:29.330Z,8.80
2019-03-30T03:38:01.466Z,12.63
2019-03-30T03:40:31.329Z,10.13
2019-03-30T03:43:03.993Z,8.73
2019-03-30T03:45:34.181Z,11.67
2019-03-30T03:48:04.070Z,8.43
2019-03-30T03:50:44.227Z,10.83
2019-03-30T03:53:15.600Z,9.77
2019-03-30T03:55:50.186Z,10.03
2019-03-30T03:58:21.439Z,9.20
2019-03-30T04:00:54.989Z,10.63
2019-03-30T04:03:25.233Z,9.53
2019-03-30T04:05:57.831Z,8.07
2019-03-30T04:08:28.199Z,7.97
2019-03-30T04:10:59.280Z,9.83
2019-03-30T04:13:31.093Z,10.47
2019-03-30T04:16:00.884Z,11.90
2019-03-30T04:18:30.977Z,8.80
2019-03-30T04:21:07.225Z,9.10
2019-03-30T04:23:37.306Z,9.93
2019-03-30T04:26:09.031Z,10.57
2019-03-30T04:28:38.751Z,12.57
2019-03-30T04:31:09.176Z,8.90
2019-03-30T04:33:40.382Z,8.73
2019-03-30T04:36:10.465Z,9.07
2019-03-30T04:38:40.214Z,8.77
2019-03-30T04:41:10.087Z,9.50
2019-03-30T04:43:39.659Z,11.40
2019-03-30T04:46:09.502Z,11.83
2019-03-30T04:48:39.241Z,10.53
2019-03-30T04:51:09.133Z,9.10
2019-03-30T04:53:38.959Z,10.47
2019-03-30T04:56:11.909Z,12.30
2019-03-30T04:58:42.526Z,10.17
2019-03-30T05:01:12.336Z,10.27
2019-03-30T05:03:43.272Z,9.30
2019-03-30T05:06:13.405Z,8.83
2019-03-30T05:08:43.265Z,10.40
2019-03-30T05:11:13.267Z,11.20
2019-03-30T05:13:43.136Z,10.13
2019-03-30T05:16:13.968Z,9.70
2019-03-30T05:18:43.823Z,9.30
2019-03-30T05:21:13.598Z,11.27
2019-03-30T05:23:43.343Z,10.70
2019-03-30T05:26:13.123Z,10.80
2019-03-30T05:28:45.858Z,9.07
2019-03-30T05:31:15.649Z,9.03
2019-03-30T05:33:45.484Z,9.00
2019-03-30T05:36:15.271Z,11.70
2019-03-30T05:38:45.182Z,12.37
2019-03-30T05:41:15.403Z,8.60
2019-03-30T05:43:45.285Z,11.43
2019-03-30T05:46:16.622Z,10.70
2019-03-30T05:48:46.382Z,11.03
2019-03-30T05:51:16.138Z,10.80
2019-03-30T05:53:46.481Z,10.63
2019-03-30T05:56:16.549Z,10.60
2019-03-30T05:58:46.314Z,9.60
2019-03-30T06:01:16.116Z,11.87
2019-03-30T06:03:45.972Z,9.33
2019-03-30T06:06:16.002Z,9.63
2019-03-30T06:08:46.070Z,12.47
2019-03-30T06:11:16.917Z,12.23
2019-03-30T06:13:46.786Z,10.07
2019-03-30T06:16:16.953Z,12.77
2019-03-30T06:18:46.839Z,10.70
2019-03-30T06:21:16.650Z,10.10
2019-03-30T06:23:48.653Z,9.97
2019-03-30T06:26:17.935Z,11.37
2019-03-30T06:28:47.742Z,11.17
2019-03-30T06:31:17.639Z,11.80
2019-03-30T06:33:50.445Z,11.60
2019-03-30T06:36:22.998Z,10.57
2019-03-30T06:38:53.018Z,11.23
2019-03-30T06:41:22.744Z,8.90
2019-03-30T06:43:52.432Z,9.97
2019-03-30T06:46:22.241Z,10.27
2019-03-30T06:48:53.866Z,10.53
2019-03-30T06:51:23.677Z,12.90
2019-03-30T06:53:53.491Z,12.77
2019-03-30T06:56:23.228Z,12.60
2019-03-30T06:58:53.048Z,11.73
2019-03-30T07:01:23.676Z,14.63
2019-03-30T07:03:53.423Z,13.87
2019-03-30T07:06:23.577Z,16.10
2019-03-30T07:08:55.594Z,12.67
2019-03-30T07:11:27.646Z,11.30
2019-03-30T07:13:59.189Z,11.50
2019-03-30T07:16:30.612Z,11.43
2019-03-30T07:19:01.895Z,11.00
2019-03-30T07:21:31.809Z,12.87
2019-03-30T07:24:01.815Z,13.43
2019-03-30T07:26:33.701Z,11.00
2019-03-30T07:29:04.931Z,11.43
2019-03-30T07:31:37.497Z,11.73
2019-03-30T07:34:07.352Z,12.33
2019-03-30T07:36:38.610Z,12.80
2019-03-30T07:39:08.491Z,12.17
2019-03-30T07:41:39.533Z,14.00
2019-03-30T07:44:09.321Z,10.57
2019-03-30T07:46:39.162Z,13.53
2019-03-30T07:49:09.044Z,11.47
2019-03-30T07:51:38.868Z,13.30
2019-03-30T07:54:08.703Z,12.23
2019-03-30T07:56:38.616Z,15.37
2019-03-30T07:59:08.624Z,11.57
2019-03-30T08:01:38.303Z,13.07
2019-03-30T08:04:09.755Z,14.93
2019-03-30T08:06:41.693Z,13.57
2019-03-30T08:09:11.806Z,14.23
2019-03-30T08:11:41.672Z,14.30
2019-03-30T08:14:11.504Z,12.47
2019-03-30T08:16:41.375Z,14.13
2019-03-30T08:19:11.198Z,13.03
2019-03-30T08:21:41.313Z,13.23
2019-03-30T08:24:11.147Z,14.90
2019-03-30T08:26:40.948Z,17.17
2019-03-30T08:29:15.661Z,14.67
2019-03-30T08:31:46.131Z,13.27
2019-03-30T08:34:17.217Z,14.37
2019-03-30T08:36:46.959Z,16.03
2019-03-30T08:39:16.808Z,11.43
2019-03-30T08:41:46.593Z,13.80
2019-03-30T08:44:17.194Z,14.17
2019-03-30T08:46:49.964Z,13.37
2019-03-30T08:49:19.803Z,13.10
2019-03-30T08:51:49.582Z,12.20
2019-03-30T08:54:19.316Z,13.40
2019-03-30T08:56:49.163Z,14.10
2019-03-30T08:59:18.929Z,11.97
2019-03-30T09:01:51.867Z,14.90
2019-03-30T09:04:23.801Z,15.40
2019-03-30T09:06:54.025Z,14.93
2019-03-30T09:09:23.804Z,13.93
2019-03-30T09:11:53.553Z,14.50
2019-03-30T09:14:23.614Z,14.73
2019-03-30T09:16:53.585Z,13.97
2019-03-30T09:19:23.402Z,16.03
2019-03-30T09:21:53.208Z,14.17
2019-03-30T09:24:23.971Z,17.03
2019-03-30T09:26:56.657Z,17.40
2019-03-30T09:29:26.819Z,16.13
2019-03-30T09:32:13.232Z,15.43
2019-03-30T09:34:31.344Z,14.53
2019-03-30T09:37:01.333Z,20.40
2019-03-30T09:39:31.566Z,18.70
2019-03-30T09:42:01.712Z,13.57
2019-03-30T09:44:31.574Z,16.90
2019-03-30T09:47:04.369Z,15.43
2019-03-30T09:49:34.743Z,16.93
2019-03-30T09:52:04.950Z,17.07
2019-03-30T09:54:34.775Z,15.63
2019-03-30T09:57:04.595Z,15.90
2019-03-30T09:59:34.646Z,17.00
2019-03-30T10:02:04.495Z,17.30
2019-03-30T10:04:34.578Z,17.87
2019-03-30T10:07:04.479Z,16.10
2019-03-30T10:09:38.110Z,16.23
2019-03-30T10:12:08.369Z,17.13
2019-03-30T10:14:42.153Z,15.07
2019-03-30T10:17:14.308Z,18.00
2019-03-30T10:19:44.256Z,15.73
2019-03-30T10:22:14.083Z,16.90
2019-03-30T10:24:46.246Z,16.40
2019-03-30T10:27:16.026Z,18.13
2019-03-30T10:29:45.940Z,16.73
2019-03-30T10:32:15.777Z,17.00
2019-03-30T10:34:54.293Z,22.03
2019-03-30T10:37:24.841Z,12.93
2019-03-30T10:39:54.747Z,14.20
2019-03-30T10:42:25.450Z,16.80
2019-03-30T10:44:58.299Z,15.60
2019-03-30T10:47:28.180Z,12.70
2019-03-30T10:49:58.280Z,15.73
2019-03-30T10:52:28.159Z,11.93
2019-03-30T10:55:01.038Z,14.80
2019-03-30T10:57:30.922Z,13.03
2019-03-30T11:00:01.173Z,12.23
2019-03-30T11:02:30.931Z,15.93
2019-03-30T11:05:01.151Z,10.97
2019-03-30T11:07:31.196Z,10.73
2019-03-30T11:10:01.003Z,12.47
2019-03-30T11:12:31.063Z,12.20
2019-03-30T11:15:00.988Z,12.63
2019-03-30T11:17:30.778Z,12.33
2019-03-30T11:20:00.953Z,13.17
2019-03-30T11:22:31.088Z,8.63
2019-03-30T11:25:07.634Z,9.17
2019-03-30T11:27:32.507Z,11.27
2019-03-30T11:30:02.392Z,9.30
2019-03-30T11:32:33.006Z,8.87
2019-03-30T11:35:02.858Z,11.67
2019-03-30T11:37:32.808Z,13.30
2019-03-30T11:40:05.109Z,9.63
2019-03-30T11:42:35.897Z,9.53
2019-03-30T11:45:07.910Z,9.90
2019-03-30T11:47:37.753Z,12.17
2019-03-30T11:50:08.059Z,9.07
2019-03-30T11:52:37.838Z,9.63
2019-03-30T11:55:21.101Z,10.37
2019-03-30T11:57:39.274Z,8.67
2019-03-30T12:00:12.770Z,9.50
2019-03-30T12:02:45.099Z,12.77
2019-03-30T12:05:17.439Z,12.53
2019-03-30T12:07:48.383Z,10.13
2019-03-30T12:10:21.249Z,11.17
2019-03-30T12:12:53.824Z,9.83
2019-03-30T12:15:24.184Z,9.33
2019-03-30T12:17:54.337Z,13.17
2019-03-30T12:20:24.796Z,13.17
2019-03-30T12:22:54.631Z,11.03
2019-03-30T12:25:35.444Z,8.93
2019-03-30T12:27:58.668Z,8.20
2019-03-30T12:30:28.964Z,13.60
2019-03-30T12:33:00.225Z,9.13
2019-03-30T12:35:33.897Z,11.33
2019-03-30T12:38:03.818Z,10.83
2019-03-30T12:40:35.147Z,9.43
2019-03-30T12:43:04.970Z,10.87
2019-03-30T12:45:35.148Z,10.33
2019-03-30T12:48:05.032Z,8.73
2019-03-30T12:50:35.281Z,12.50
2019-03-30T12:53:05.182Z,7.03
2019-03-30T12:55:48.361Z,8.17
2019-03-30T12:58:06.942Z,7.17
2019-03-30T13:00:41.028Z,9.10
2019-03-30T13:03:12.337Z,10.67
2019-03-30T13:05:42.139Z,9.57
2019-03-30T13:08:15.892Z,8.20
2019-03-30T13:10:45.998Z,10.27
2019-03-30T13:13:15.838Z,9.40
2019-03-30T13:15:45.660Z,12.13
2019-03-30T13:18:15.776Z,9.93
2019-03-30T13:20:45.674Z,11.23
2019-03-30T13:23:27.440Z,9.37
2019-03-30T13:26:03.744Z,9.43
2019-03-30T13:28:32.073Z,9.10
2019-03-30T13:31:02.440Z,9.60
2019-03-30T13:33:32.343Z,10.50
2019-03-30T13:36:02.211Z,10.90
2019-03-30T13:38:32.042Z,12.17
2019-03-30T13:41:01.799Z,9.13
2019-03-30T13:43:31.833Z,11.00
2019-03-30T13:46:07.643Z,11.87
2019-03-30T13:48:37.544Z,11.33
2019-03-30T13:51:07.534Z,13.63
2019-03-30T13:53:37.450Z,11.73
2019-03-30T13:56:17.058Z,14.80
2019-03-30T13:58:39.210Z,11.03
2019-03-30T14:01:09.092Z,11.43
2019-03-30T14:03:38.878Z,14.67
2019-03-30T14:06:09.061Z,12.50
2019-03-30T14:08:41.861Z,11.97
2019-03-30T14:11:11.783Z,11.80
2019-03-30T14:13:41.701Z,12.73
2019-03-30T14:16:13.930Z,11.53
2019-03-30T14:18:44.177Z,10.60
2019-03-30T14:21:18.233Z,12.50
2019-03-30T14:23:49.101Z,11.87
2019-03-30T14:26:31.368Z,10.87
2019-03-30T14:28:53.645Z,9.73
2019-03-30T14:31:23.467Z,11.17
2019-03-30T14:33:56.002Z,11.30
2019-03-30T14:36:25.928Z,12.30
2019-03-30T14:38:56.488Z,14.83
2019-03-30T14:41:29.297Z,11.73
2019-03-30T14:43:59.095Z,11.20
2019-03-30T14:46:29.022Z,12.30
2019-03-30T14:49:01.462Z,12.43
2019-03-30T14:51:34.205Z,10.80
2019-03-30T14:54:04.553Z,11.40
2019-03-30T14:56:44.883Z,11.70
2019-03-30T14:59:10.302Z,11.57
2019-03-30T15:01:38.281Z,11.17
2019-03-30T15:04:10.850Z,12.47
2019-03-30T15:06:40.748Z,11.83
2019-03-30T15:09:10.591Z,11.87
2019-03-30T15:11:40.651Z,13.53
2019-03-30T15:14:10.519Z,12.63
2019-03-30T15:16:42.789Z,12.97
2019-03-30T15:19:12.810Z,13.77
2019-03-30T15:21:45.147Z,15.50
2019-03-30T15:24:16.175Z,13.67
2019-03-30T15:26:59.181Z,11.43
2019-03-30T15:29:17.801Z,11.43
2019-03-30T15:31:48.639Z,11.03
2019-03-30T15:34:20.392Z,14.00
2019-03-30T15:36:55.783Z,12.27
2019-03-30T15:39:25.572Z,13.30
2019-03-30T15:41:58.766Z,10.53
2019-03-30T15:44:31.831Z,11.90
2019-03-30T15:47:06.423Z,11.97
2019-03-30T15:49:36.829Z,11.30
2019-03-30T15:52:13.749Z,10.70
2019-03-30T15:54:41.273Z,11.13
2019-03-30T15:57:14.442Z,12.13
2019-03-30T15:59:44.997Z,10.97
2019-03-30T16:02:16.975Z,10.60
2019-03-30T16:04:47.326Z,11.97
2019-03-30T16:07:20.391Z,9.67
2019-03-30T16:09:50.183Z,8.93
2019-03-30T16:12:20.940Z,10.80
2019-03-30T16:14:51.949Z,12.07
2019-03-30T16:17:22.692Z,9.07
2019-03-30T16:19:53.350Z,11.17
2019-03-30T16:22:23.674Z,8.97
2019-03-30T16:24:53.559Z,11.10
2019-03-30T16:27:29.139Z,10.27
2019-03-30T16:29:58.426Z,10.87
2019-03-30T16:32:26.782Z,12.07
2019-03-30T16:34:56.933Z,13.23
2019-03-30T16:37:26.809Z,10.60
2019-03-30T16:39:56.728Z,9.60
2019-03-30T16:42:26.513Z,10.63
2019-03-30T16:44:56.823Z,11.27
2019-03-30T16:47:26.621Z,12.00
2019-03-30T16:49:59.151Z,10.13
2019-03-30T16:52:28.956Z,10.23
2019-03-30T16:54:59.917Z,10.50
2019-03-30T16:57:43.274Z,10.70
2019-03-30T17:00:08.233Z,9.33
2019-03-30T17:02:38.228Z,9.87
2019-03-30T17:05:09.512Z,10.50
2019-03-30T17:07:49.597Z,10.20
2019-03-30T17:10:22.591Z,10.63
2019-03-30T17:12:52.406Z,11.20
2019-03-30T17:15:22.443Z,12.67
2019-03-30T17:17:52.727Z,11.97
2019-03-30T17:20:27.373Z,10.53
2019-03-30T17:22:59.009Z,10.57
2019-03-30T17:25:29.280Z,13.03
2019-03-30T17:27:59.205Z,11.67
2019-03-30T17:30:29.346Z,10.27
2019-03-30T17:32:59.655Z,13.93
2019-03-30T17:35:32.903Z,14.07
2019-03-30T17:38:02.903Z,10.50
2019-03-30T17:40:34.158Z,10.03
2019-03-30T17:43:04.157Z,11.17
2019-03-30T17:45:34.389Z,11.20
2019-03-30T17:48:05.192Z,11.60
2019-03-30T17:50:35.536Z,11.80
2019-03-30T17:53:06.535Z,10.50
2019-03-30T17:55:36.566Z,9.90
2019-03-30T17:58:12.817Z,12.30
2019-03-30T18:00:38.223Z,10.60
2019-03-30T18:03:08.170Z,11.50
2019-03-30T18:05:38.097Z,11.83
2019-03-30T18:08:07.911Z,11.37
2019-03-30T18:10:37.791Z,11.67
2019-03-30T18:13:11.299Z,12.33
2019-03-30T18:15:43.927Z,12.23
2019-03-30T18:18:14.605Z,11.23
2019-03-30T18:20:45.377Z,12.37
2019-03-30T18:23:16.721Z,11.30
2019-03-30T18:25:46.596Z,12.13
2019-03-30T18:28:26.926Z,12.47
2019-03-30T18:30:49.509Z,12.20
2019-03-30T18:33:22.400Z,12.10
2019-03-30T18:35:54.130Z,13.80
2019-03-30T18:38:27.060Z,12.13
2019-03-30T18:41:01.980Z,11.83
2019-03-30T18:43:32.729Z,13.07
2019-03-30T18:46:02.949Z,12.40
2019-03-30T18:48:35.471Z,14.23
2019-03-30T18:51:05.997Z,13.93
2019-03-30T18:53:36.137Z,13.07
2019-03-30T18:56:06.514Z,15.13
2019-03-30T18:58:42.003Z,13.77
2019-03-30T19:01:08.388Z,15.10
2019-03-30T19:03:38.776Z,17.53
2019-03-30T19:06:08.807Z,13.90
2019-03-30T19:08:39.297Z,13.87
2019-03-30T19:11:09.714Z,13.93
2019-03-30T19:13:40.015Z,17.37
2019-03-30T19:16:10.627Z,14.60
2019-03-30T19:18:40.526Z,13.17
2019-03-30T19:21:10.426Z,15.73
2019-03-30T19:23:40.384Z,14.53
2019-03-30T19:26:10.932Z,14.97
2019-03-30T19:28:55.376Z,16.87
2019-03-30T19:31:12.820Z,19.40
2019-03-30T19:33:42.539Z,20.50
2019-03-30T19:36:12.333Z,19.57
2019-03-30T19:38:42.635Z,16.70
2019-03-30T19:41:12.957Z,18.83
2019-03-30T19:43:43.681Z,19.37
2019-03-30T19:46:18.911Z,17.17
2019-03-30T19:48:50.850Z,21.00
2019-03-30T19:51:23.877Z,19.23
2019-03-30T19:53:59.825Z,19.77
2019-03-30T19:56:29.194Z,22.17
2019-03-30T19:59:10.513Z,18.90
2019-03-30T20:01:32.934Z,21.40
2019-03-30T20:04:02.989Z,18.63
2019-03-30T20:06:32.816Z,21.40
2019-03-30T20:09:04.203Z,21.73
2019-03-30T20:11:34.097Z,19.53
2019-03-30T20:14:05.597Z,20.33
2019-03-30T20:16:35.730Z,21.63
2019-03-30T20:19:12.481Z,21.17
2019-03-30T20:21:37.421Z,24.40
2019-03-30T20:24:07.875Z,21.90
2019-03-30T20:26:37.791Z,27.43
2019-03-30T20:29:07.551Z,23.73
2019-03-30T20:31:37.392Z,21.33
2019-03-30T20:34:07.162Z,24.63
2019-03-30T20:36:36.941Z,25.47
2019-03-30T20:39:08.458Z,28.87
2019-03-30T20:41:39.738Z,33.03
2019-03-30T20:44:09.551Z,35.43
2019-03-30T20:46:39.364Z,33.50
2019-03-30T20:49:10.334Z,30.00
2019-03-30T20:51:40.285Z,28.63
2019-03-30T20:54:10.694Z,25.43
2019-03-30T20:56:40.528Z,25.87
2019-03-30T20:59:10.313Z,27.93
2019-03-30T21:01:40.371Z,27.07
2019-03-30T21:04:10.139Z,27.23
2019-03-30T21:06:40.126Z,24.70
2019-03-30T21:09:10.077Z,23.53
2019-03-30T21:11:39.877Z,24.43
2019-03-30T21:14:09.756Z,24.93
2019-03-30T21:16:40.376Z,25.17
2019-03-30T21:19:10.278Z,24.43
2019-03-30T21:21:40.226Z,26.10
2019-03-30T21:24:10.285Z,28.77
2019-03-30T21:26:41.735Z,28.80
2019-03-30T21:29:14.054Z,27.63
2019-03-30T21:31:44.150Z,27.43
2019-03-30T21:34:13.999Z,26.27
2019-03-30T21:36:45.882Z,27.40
2019-03-30T21:39:17.975Z,23.53
2019-03-30T21:41:50.106Z,22.80
2019-03-30T21:44:22.184Z,27.97
2019-03-30T21:46:54.453Z,22.80
2019-03-30T21:49:26.701Z,25.40
2019-03-30T21:51:59.711Z,25.43
2019-03-30T21:54:32.565Z,23.33
2019-03-30T21:57:02.780Z,22.73
2019-03-30T21:59:34.963Z,22.17
2019-03-30T22:02:05.052Z,25.40
2019-03-30T22:04:38.164Z,25.47
2019-03-30T22:07:08.841Z,22.73
2019-03-30T22:09:40.032Z,22.63
2019-03-30T22:12:09.995Z,23.33
2019-03-30T22:14:41.215Z,23.23
2019-03-30T22:17:11.777Z,27.17
2019-03-30T22:19:41.718Z,25.30
2019-03-30T22:22:12.249Z,26.33
2019-03-30T22:24:42.131Z,26.53
2019-03-30T22:27:12.386Z,24.67
2019-03-30T22:29:42.139Z,26.13
2019-03-30T22:32:12.044Z,25.83
2019-03-30T22:34:42.181Z,29.50
2019-03-30T22:37:17.084Z,23.33
2019-03-30T22:39:46.988Z,27.10
2019-03-30T22:42:17.237Z,25.17
2019-03-30T22:44:48.029Z,27.93
2019-03-30T22:47:17.929Z,23.60
2019-03-30T22:49:47.734Z,24.40
2019-03-30T22:52:20.336Z,23.57
2019-03-30T22:54:49.371Z,24.43
2019-03-30T22:57:19.220Z,25.23
2019-03-30T22:59:49.525Z,27.07
2019-03-30T23:02:21.814Z,21.53
2019-03-30T23:04:51.882Z,24.33
2019-03-30T23:07:21.928Z,22.60
2019-03-30T23:09:52.115Z,23.53
2019-03-30T23:12:22.019Z,26.70
2019-03-30T23:14:52.221Z,22.33
2019-03-30T23:17:22.540Z,23.03
2019-03-30T23:19:56.344Z,25.07
2019-03-30T23:22:26.388Z,24.00
2019-03-30T23:24:57.253Z,23.30
2019-03-30T23:27:30.057Z,21.67
2019-03-30T23:30:01.629Z,24.03
2019-03-30T23:32:31.882Z,23.00
2019-03-30T23:35:03.889Z,24.77
2019-03-30T23:37:36.505Z,27.60
2019-03-30T23:40:06.628Z,23.80
2019-03-30T23:42:43.712Z,25.80
2019-03-30T23:45:13.598Z,26.37
2019-03-30T23:47:45.684Z,26.63
2019-03-30T23:50:17.614Z,31.67
2019-03-30T23:52:48.311Z,29.77
2019-03-30T23:55:18.469Z,24.73
2019-03-30T23:57:49.012Z,24.47
